Time;durP1;ratioP1;P1;durP2;ratioP2;P2;SDS_P1;SDS_P2;PMS_P1;PMS_P2;Temp;Humidity;BMP_temperature;BMP_pressure;BME280_temperature;BME280_humidity;BME280_pressure;Samples;Min_cycle;Max_cycle;Signal;HPM_P1;HPM_P2
2022/10/20 00:01:05;;;;;;;;;;;;;;;21.20;51.39;101428.13;5119515;27;19928;-39
2022/10/20 00:03:31;;;;;;;;;;;;;;;21.20;51.52;101413.44;5120137;27;19923;-41
2022/10/20 00:06:16;;;;;;;;;;;;;;;21.20;51.43;101399.56;5119074;27;19931;-41
2022/10/20 00:08:42;;;;;;;;;;;;;;;21.20;51.42;101394.91;5104337;27;20021;-40
2022/10/20 00:11:09;;;;;;;;;;;;;;;21.20;51.49;101396.81;5123395;27;19949;-39
2022/10/20 00:13:34;;;;;;;;;;;;;;;21.20;51.40;101397.66;5118884;27;19993;-41
2022/10/20 00:16:00;;;;;;;;;;;;;;;21.19;51.42;101392.38;5122264;27;20268;-39
2022/10/20 00:18:26;;;;;;;;;;;;;;;21.21;51.56;101395.72;5101241;27;19924;-40
2022/10/20 00:20:51;;;;;;;;;;;;;;;21.19;51.44;101382.13;5102997;27;19923;-39
2022/10/20 00:23:17;;;;;;;;;;;;;;;21.19;51.55;101359.97;5115583;28;20383;-40
2022/10/20 00:25:43;;;;;;;;;;;;;;;21.18;51.49;101361.09;5117671;27;19976;-40
2022/10/20 00:28:08;;;;;;;;;;;;;;;21.19;51.47;101364.69;5116567;28;19934;-40
2022/10/20 00:30:34;;;;;;;;;;;;;;;21.17;51.49;101353.91;5111733;28;20395;-40
2022/10/20 00:33:01;;;;;;;;;;;;;;;21.19;51.53;101359.16;5099818;27;20060;-39
2022/10/20 00:35:27;;;;;;;;;;;;;;;21.19;51.62;101370.22;5102557;28;20018;-38
2022/10/20 00:37:53;;;;;;;;;;;;;;;21.18;51.40;101380.47;5099183;28;19923;-39
2022/10/20 00:40:18;;;;;;;;;;;;;;;21.18;51.53;101366.63;5114592;27;19927;-39
2022/10/20 00:42:44;;;;;;;;;;;;;;;21.18;51.61;101372.19;5116721;27;20402;-41
2022/10/20 00:45:12;;;;;;;;;;;;;;;21.19;51.47;101370.22;5100193;28;19951;-39
2022/10/20 00:47:40;;;;;;;;;;;;;;;21.17;51.51;101348.38;5093089;28;20028;-39
2022/10/20 00:50:07;;;;;;;;;;;;;;;21.18;51.55;101346.41;5121338;27;20369;-39
2022/10/20 00:52:33;;;;;;;;;;;;;;;21.17;51.62;101340.06;5102713;27;20002;-40
2022/10/20 00:54:59;;;;;;;;;;;;;;;21.17;51.48;101348.38;5121401;27;19963;-40
2022/10/20 00:57:25;;;;;;;;;;;;;;;21.18;51.53;101332.56;5118851;27;19943;-40
2022/10/20 00:59:50;;;;;;;;;;;;;;;21.17;51.43;101337.28;5114487;27;19924;-40
2022/10/20 01:02:16;;;;;;;;;;;;;;;21.17;51.55;101326.22;5119921;27;20371;-39
2022/10/20 01:04:41;;;;;;;;;;;;;;;21.17;51.53;101326.22;5116554;27;19924;-40
2022/10/20 01:07:07;;;;;;;;;;;;;;;21.17;51.62;101319.84;5125727;27;19924;-39
2022/10/20 01:09:33;;;;;;;;;;;;;;;21.17;51.62;101314.31;5112469;27;20351;-39
2022/10/20 01:12:08;;;;;;;;;;;;;;;21.17;51.49;101306.00;5111303;27;19924;-39
2022/10/20 01:14:37;;;;;;;;;;;;;;;21.17;51.41;101297.69;5117380;27;20072;-40
2022/10/20 01:17:07;;;;;;;;;;;;;;;21.17;51.51;101303.22;5120496;27;20010;-40
2022/10/20 01:19:43;;;;;;;;;;;;;;;21.16;51.47;101293.28;5100621;28;20018;-41
2022/10/20 01:22:18;;;;;;;;;;;;;;;21.16;51.59;101291.31;5120120;27;19963;-40
2022/10/20 01:24:47;;;;;;;;;;;;;;;21.16;51.42;101296.88;5125156;27;20256;-38
2022/10/20 01:27:22;;;;;;;;;;;;;;;21.16;51.49;101294.09;5123296;28;21452;-39
2022/10/20 01:29:51;;;;;;;;;;;;;;;21.16;51.54;101284.97;5117596;28;20026;-41
2022/10/20 01:32:19;;;;;;;;;;;;;;;21.16;51.48;101283.00;5123244;28;20003;-40
2022/10/20 01:34:46;;;;;;;;;;;;;;;21.16;51.50;101279.41;5121504;27;20057;-41
2022/10/20 01:37:18;;;;;;;;;;;;;;;21.17;51.58;101279.13;5120015;28;19975;-42
2022/10/20 01:40:10;;;;;;;;;;;;;;;21.17;51.60;101278.31;5103589;28;19928;-39
2022/10/20 01:42:35;;;;;;;;;;;;;;;21.17;51.47;101281.06;5117121;28;20053;-39
2022/10/20 01:45:01;;;;;;;;;;;;;;;21.15;51.58;101267.50;5123682;27;20290;-40
2022/10/20 01:47:27;;;;;;;;;;;;;;;21.16;51.49;101271.94;5116961;27;20018;-39
2022/10/20 01:49:52;;;;;;;;;;;;;;;21.15;51.38;101267.50;5101155;28;19931;-39
2022/10/20 01:52:20;;;;;;;;;;;;;;;21.17;51.51;101258.91;5102345;28;19934;-42
2022/10/20 01:54:45;;;;;;;;;;;;;;;21.15;51.41;101255.59;5104346;27;20010;-39
2022/10/20 01:57:14;;;;;;;;;;;;;;;21.16;51.41;101252.53;5115747;28;19923;-39
2022/10/20 02:02:48;;;;;;;;;;;;;;;21.16;51.63;101240.66;5164978;27;19941;-42
2022/10/20 02:07:53;;;;;;;;;;;;;;;21.16;51.54;101232.34;5168328;27;19941;-40
2022/10/20 02:10:20;;;;;;;;;;;;;;;21.15;51.49;101225.94;5133241;27;19970;-40
2022/10/20 02:12:46;;;;;;;;;;;;;;;21.16;51.49;101221.25;5157332;27;20512;-41
2022/10/20 02:15:14;;;;;;;;;;;;;;;21.14;51.49;101224.28;5154982;27;20014;-39
2022/10/20 02:17:39;;;;;;;;;;;;;;;21.15;51.53;101228.72;5156372;27;20018;-41
2022/10/20 02:20:05;;;;;;;;;;;;;;;21.14;51.42;101223.47;5151181;27;19937;-39
2022/10/20 02:22:31;;;;;;;;;;;;;;;21.14;51.60;101213.22;5162541;27;19951;-40
2022/10/20 02:24:57;;;;;;;;;;;;;;;21.14;51.45;101206.84;5160609;27;19923;-41
2022/10/20 02:27:26;;;;;;;;;;;;;;;21.14;51.60;101198.53;5163285;27;20009;-39
2022/10/20 02:29:56;;;;;;;;;;;;;;;21.14;51.51;101204.91;5132728;27;20060;-40
2022/10/20 02:32:22;;;;;;;;;;;;;;;21.14;51.50;101207.69;5145654;27;19973;-39
2022/10/20 02:34:48;;;;;;;;;;;;;;;21.14;51.58;101198.53;5126150;27;20382;-42
2022/10/20 02:37:13;;;;;;;;;;;;;;;21.15;51.55;101197.44;5150026;27;19968;-40
2022/10/20 02:39:39;;;;;;;;;;;;;;;21.14;51.65;101193.00;5147781;27;19923;-39
2022/10/20 02:42:05;;;;;;;;;;;;;;;21.14;51.50;101195.78;5148437;27;20366;-39
2022/10/20 02:44:30;;;;;;;;;;;;;;;21.15;51.66;101194.66;5148391;27;20014;-40
2022/10/20 02:46:56;;;;;;;;;;;;;;;21.14;51.53;101193.00;5148263;27;19931;-40
2022/10/20 02:49:21;;;;;;;;;;;;;;;21.14;51.54;101190.25;5151272;27;19953;-41
2022/10/20 02:51:47;;;;;;;;;;;;;;;21.14;51.62;101171.69;5151671;27;20177;-41
2022/10/20 02:54:12;;;;;;;;;;;;;;;21.14;51.44;101173.63;5127507;27;19989;-40
2022/10/20 02:56:38;;;;;;;;;;;;;;;21.14;51.57;101170.84;5145765;27;19923;-39
2022/10/20 02:59:03;;;;;;;;;;;;;;;21.13;51.65;101175.56;5153028;27;19966;-39
2022/10/20 03:01:29;;;;;;;;;;;;;;;21.14;51.50;101177.22;5145167;27;19924;-39
2022/10/20 03:03:58;;;;;;;;;;;;;;;21.13;51.54;101167.25;5143989;27;20093;-39
2022/10/20 03:06:24;;;;;;;;;;;;;;;21.14;51.54;101170.84;5147303;27;20027;-39
2022/10/20 03:08:49;;;;;;;;;;;;;;;21.12;51.60;101165.63;5130206;27;19948;-40
2022/10/20 03:11:15;;;;;;;;;;;;;;;21.13;51.58;101160.91;5150495;27;19927;-43
2022/10/20 03:13:41;;;;;;;;;;;;;;;21.13;51.49;101158.13;5151463;27;19923;-39
2022/10/20 03:16:06;;;;;;;;;;;;;;;21.13;51.57;101158.13;5146667;27;19930;-39
2022/10/20 03:18:32;;;;;;;;;;;;;;;21.13;51.54;101152.59;5120759;27;20291;-41
2022/10/20 03:20:57;;;;;;;;;;;;;;;21.14;51.68;101159.78;5139728;27;19976;-41
2022/10/20 03:23:23;;;;;;;;;;;;;;;21.13;51.54;101156.19;5136050;27;19930;-39
2022/10/20 03:25:48;;;;;;;;;;;;;;;21.13;51.49;101156.19;5136184;27;20366;-40
2022/10/20 03:28:15;;;;;;;;;;;;;;;21.12;51.41;101154.53;5134858;27;19938;-39
2022/10/20 03:30:40;;;;;;;;;;;;;;;21.13;51.64;101149.81;5134696;27;20029;-42
2022/10/20 03:33:06;;;;;;;;;;;;;;;21.12;51.52;101146.22;5132883;27;19962;-41
2022/10/20 03:35:31;;;;;;;;;;;;;;;21.12;51.62;101142.63;5114799;27;19923;-41
2022/10/20 03:37:57;;;;;;;;;;;;;;;21.12;51.57;101137.91;5136815;27;19941;-39
2022/10/20 03:40:22;;;;;;;;;;;;;;;21.13;51.54;101138.75;5131024;27;19931;-41
2022/10/20 03:42:48;;;;;;;;;;;;;;;21.13;51.51;101142.34;5133238;27;20197;-40
2022/10/20 03:45:14;;;;;;;;;;;;;;;21.13;51.62;101135.97;5133285;27;19927;-40
2022/10/20 03:47:43;;;;;;;;;;;;;;;21.12;51.60;101118.53;5130315;27;19924;-41
2022/10/20 03:50:09;;;;;;;;;;;;;;;21.13;51.62;101122.13;5133495;27;19931;-40
2022/10/20 03:52:35;;;;;;;;;;;;;;;21.13;51.58;101116.59;5137713;27;19923;-39
2022/10/20 03:55:01;;;;;;;;;;;;;;;21.12;51.47;101110.22;5137102;27;19986;-40
2022/10/20 03:57:27;;;;;;;;;;;;;;;21.12;51.54;101121.31;5134654;27;20427;-39
2022/10/20 03:59:52;;;;;;;;;;;;;;;21.12;51.52;101104.69;5137937;27;19928;-41
2022/10/20 04:02:24;;;;;;;;;;;;;;;21.13;51.62;101108.28;5135710;27;19930;-39
2022/10/20 04:04:50;;;;;;;;;;;;;;;21.13;51.60;101094.44;5126678;27;19986;-39
2022/10/20 04:07:15;;;;;;;;;;;;;;;21.13;51.47;101097.19;5127018;27;19927;-41
2022/10/20 04:09:41;;;;;;;;;;;;;;;21.12;51.57;101104.69;5130680;27;20318;-40
2022/10/20 04:12:06;;;;;;;;;;;;;;;21.12;51.46;101110.22;5131697;27;19931;-39
2022/10/20 04:14:32;;;;;;;;;;;;;;;21.12;51.59;101115.75;5131043;27;19923;-41
2022/10/20 04:16:57;;;;;;;;;;;;;;;21.11;51.60;101113.28;5133276;27;19923;-39
2022/10/20 04:19:23;;;;;;;;;;;;;;;21.12;51.60;101113.00;5132352;27;19923;-39
2022/10/20 04:21:48;;;;;;;;;;;;;;;21.11;51.54;101103.00;5133883;27;19932;-39
2022/10/20 04:24:14;;;;;;;;;;;;;;;21.12;51.62;101092.78;5135448;27;19979;-40
2022/10/20 04:26:39;;;;;;;;;;;;;;;21.11;51.68;101094.69;5134910;27;19924;-39
2022/10/20 04:29:05;;;;;;;;;;;;;;;21.11;51.61;101105.78;5136500;27;20188;-39
2022/10/20 04:31:31;;;;;;;;;;;;;;;21.12;51.61;101087.25;5130228;27;19957;-40
2022/10/20 04:33:56;;;;;;;;;;;;;;;21.11;51.61;101080.84;5131591;27;19923;-39
2022/10/20 04:36:22;;;;;;;;;;;;;;;21.11;51.55;101055.13;5133494;27;19927;-40
2022/10/20 04:38:47;;;;;;;;;;;;;;;21.12;51.64;101048.47;5133331;27;19923;-42
2022/10/20 04:41:13;;;;;;;;;;;;;;;21.11;51.52;101058.69;5131608;27;19954;-42
2022/10/20 04:43:39;;;;;;;;;;;;;;;21.12;51.61;101060.38;5130461;27;19980;-41
2022/10/20 04:46:04;;;;;;;;;;;;;;;21.10;51.50;101059.00;5133270;27;20290;-42
2022/10/20 04:48:34;;;;;;;;;;;;;;;21.11;51.54;101052.34;5128047;27;20018;-43
2022/10/20 04:51:00;;;;;;;;;;;;;;;21.10;51.62;101048.75;5112884;27;19923;-43
2022/10/20 04:53:26;;;;;;;;;;;;;;;21.11;51.63;101047.63;5111895;27;19967;-42
2022/10/20 04:55:53;;;;;;;;;;;;;;;21.10;51.61;101034.09;5127844;27;19923;-43
2022/10/20 04:58:19;;;;;;;;;;;;;;;21.10;51.71;101034.09;5127287;27;19963;-42
2022/10/20 05:00:44;;;;;;;;;;;;;;;21.10;51.56;101026.59;5128610;27;19932;-41
2022/10/20 05:03:10;;;;;;;;;;;;;;;21.10;51.63;101028.53;5130119;27;19924;-44
2022/10/20 05:05:40;;;;;;;;;;;;;;;21.10;51.53;101032.13;5127586;27;19931;-42
2022/10/20 05:08:06;;;;;;;;;;;;;;;21.10;51.57;101036.84;5130079;27;19931;-42
2022/10/20 05:10:31;;;;;;;;;;;;;;;21.10;51.65;101020.25;5129619;27;19923;-43
2022/10/20 05:13:01;;;;;;;;;;;;;;;21.10;51.55;101012.75;5133668;27;19923;-42
2022/10/20 05:15:27;;;;;;;;;;;;;;;21.10;51.57;101023.00;5110209;27;19923;-42
2022/10/20 05:17:53;;;;;;;;;;;;;;;21.09;51.49;101000.03;5129354;27;19923;-42
2022/10/20 05:20:18;;;;;;;;;;;;;;;21.10;51.60;100998.09;5129026;27;19927;-42
2022/10/20 05:22:44;;;;;;;;;;;;;;;21.10;51.57;101007.22;5139103;27;19923;-43
2022/10/20 05:25:09;;;;;;;;;;;;;;;21.09;51.64;101013.06;5134214;27;20375;-43
2022/10/20 05:27:55;;;;;;;;;;;;;;;21.08;51.71;101012.22;5118322;27;19938;-43
2022/10/20 05:30:20;;;;;;;;;;;;;;;21.10;51.61;100992.53;5127901;27;19924;-41
2022/10/20 05:32:46;;;;;;;;;;;;;;;21.10;51.55;100992.53;5131757;27;20400;-43
2022/10/20 05:35:11;;;;;;;;;;;;;;;21.09;51.49;100986.19;5131770;27;19930;-43
2022/10/20 05:37:37;;;;;;;;;;;;;;;21.10;51.61;100984.25;5130843;27;19961;-43
2022/10/20 05:40:05;;;;;;;;;;;;;;;21.08;51.62;100981.78;5130134;27;20423;-44
2022/10/20 05:42:30;;;;;;;;;;;;;;;21.09;51.61;100982.59;5137772;27;19965;-42
2022/10/20 05:44:56;;;;;;;;;;;;;;;21.09;51.58;100986.19;5133958;27;19931;-42
2022/10/20 05:47:21;;;;;;;;;;;;;;;21.10;51.46;100979.53;5135817;27;19935;-43
2022/10/20 05:49:47;;;;;;;;;;;;;;;21.10;51.53;100985.06;5131671;27;20290;-43
2022/10/20 05:52:13;;;;;;;;;;;;;;;21.10;50.93;100978.69;5131260;27;19924;-42
2022/10/20 05:54:38;;;;;;;;;;;;;;;21.09;50.30;100980.66;5125199;27;19943;-42
2022/10/20 05:57:04;;;;;;;;;;;;;;;21.09;50.71;100983.41;5124651;27;19983;-43
2022/10/20 05:59:31;;;;;;;;;;;;;;;21.10;51.07;100970.41;5126809;27;19931;-42
2022/10/20 06:01:56;;;;;;;;;;;;;;;21.09;51.40;100974.28;5120902;27;20424;-43
2022/10/20 06:04:22;;;;;;;;;;;;;;;21.06;50.30;100975.69;5118594;27;19938;-42
2022/10/20 06:06:48;;;;;;;;;;;;;;;21.08;51.13;100970.69;5108923;27;19923;-43
2022/10/20 06:09:13;;;;;;;;;;;;;;;21.08;50.29;100973.47;5130863;27;19927;-45
2022/10/20 06:11:39;;;;;;;;;;;;;;;21.09;51.30;100965.97;5116371;27;19978;-43
2022/10/20 06:14:05;;;;;;;;;;;;;;;21.09;51.27;100969.56;5122075;27;20182;-44
2022/10/20 06:16:31;;;;;;;;;;;;;;;21.09;51.28;100960.44;5105114;27;19929;-42
2022/10/20 06:18:57;;;;;;;;;;;;;;;21.09;51.33;100957.69;5096385;27;20033;-42
2022/10/20 06:21:23;;;;;;;;;;;;;;;21.09;51.19;100966.81;5130146;27;20000;-43
2022/10/20 06:23:49;;;;;;;;;;;;;;;21.09;51.18;100977.06;5105513;27;20025;-42
2022/10/20 06:26:16;;;;;;;;;;;;;;;21.09;51.38;100985.38;5118657;27;19931;-43
2022/10/20 06:28:42;;;;;;;;;;;;;;;21.09;50.91;100988.13;5116981;27;19981;-40
2022/10/20 06:31:16;;;;;;;;;;;;;;;21.09;50.69;100979.81;5093121;27;19936;-41
2022/10/20 06:33:41;;;;;;;;;;;;;;;21.09;50.95;100993.66;5097373;27;20010;-40
2022/10/20 06:36:07;;;;;;;;;;;;;;;21.09;51.14;100999.22;5122503;27;19931;-41
2022/10/20 06:38:33;;;;;;;;;;;;;;;21.08;51.48;100990.09;5124157;27;20413;-41
2022/10/20 06:41:00;;;;;;;;;;;;;;;21.09;51.28;100990.91;5123130;27;20410;-41
2022/10/20 06:43:26;;;;;;;;;;;;;;;21.08;51.32;100994.78;5123985;27;19965;-40
2022/10/20 06:45:53;;;;;;;;;;;;;;;21.08;51.30;101000.34;5118327;27;19985;-40
2022/10/20 06:48:19;;;;;;;;;;;;;;;21.08;51.25;100983.72;5107855;27;19973;-41
2022/10/20 06:50:44;;;;;;;;;;;;;;;21.07;51.28;100991.22;5105978;27;19931;-40
2022/10/20 06:53:11;;;;;;;;;;;;;;;20.97;49.20;100974.66;5104492;27;19938;-40
2022/10/20 06:55:36;;;;;;;;;;;;;;;21.05;50.54;100990.66;5116219;27;20025;-39
2022/10/20 06:58:02;;;;;;;;;;;;;;;21.09;50.93;100988.13;5110427;27;19943;-41
2022/10/20 07:00:27;;;;;;;;;;;;;;;21.08;51.11;100995.63;5107341;27;19942;-40
2022/10/20 07:02:53;;;;;;;;;;;;;;;21.09;51.08;100997.25;5102646;27;19931;-40
2022/10/20 07:05:20;;;;;;;;;;;;;;;21.09;50.53;100996.44;5098648;27;20025;-41
2022/10/20 07:07:46;;;;;;;;;;;;;;;21.09;50.42;100997.25;5095690;27;20633;-41
2022/10/20 07:10:11;;;;;;;;;;;;;;;21.10;50.57;101004.44;5104466;27;19935;-40
2022/10/20 07:12:37;;;;;;;;;;;;;;;21.11;50.85;101006.09;5108904;27;19923;-41
2022/10/20 07:15:04;;;;;;;;;;;;;;;21.11;50.66;101006.09;5109922;27;20411;-40
2022/10/20 07:17:30;;;;;;;;;;;;;;;21.10;50.18;101007.22;5114997;27;19981;-44
2022/10/20 07:19:56;;;;;;;;;;;;;;;21.10;50.19;101023.81;5094931;27;19932;-40
2022/10/20 07:22:21;;;;;;;;;;;;;;;21.11;50.58;101013.56;5110436;27;20441;-42
2022/10/20 07:24:47;;;;;;;;;;;;;;;21.12;50.12;101015.25;5113874;27;19937;-40
2022/10/20 07:27:12;;;;;;;;;;;;;;;21.12;50.17;101027.16;5110203;27;19930;-40
2022/10/20 07:29:38;;;;;;;;;;;;;;;21.11;49.79;101024.66;5108933;27;19928;-41
2022/10/20 07:32:04;;;;;;;;;;;;;;;21.12;50.23;101007.75;5110913;27;19923;-41
2022/10/20 07:34:29;;;;;;;;;;;;;;;21.12;50.45;100998.63;5111199;27;20406;-40
2022/10/20 07:36:55;;;;;;;;;;;;;;;21.12;50.24;100991.16;5111576;27;19938;-40
2022/10/20 07:39:21;;;;;;;;;;;;;;;21.12;50.23;100998.63;5115228;27;19966;-40
2022/10/20 07:41:47;;;;;;;;;;;;;;;21.13;50.17;100997.50;5099514;27;20042;-42
2022/10/20 07:44:13;;;;;;;;;;;;;;;21.13;50.21;100998.34;5111585;27;19955;-41
2022/10/20 07:46:38;;;;;;;;;;;;;;;21.13;50.09;101003.06;5093755;27;19923;-43
2022/10/20 07:49:04;;;;;;;;;;;;;;;20.94;50.15;101000.16;5114143;27;19935;-41
2022/10/20 07:51:49;;;;;;;;;;;;;;;21.08;49.98;100984.53;5098013;27;19932;-40
2022/10/20 07:54:15;;;;;;;;;;;;;;;21.11;49.93;100981.16;5114830;27;19931;-40
2022/10/20 07:56:41;;;;;;;;;;;;;;;21.13;50.20;100991.97;5111621;27;19927;-40
2022/10/20 07:59:07;;;;;;;;;;;;;;;21.14;50.10;100993.63;5115622;27;20458;-40
2022/10/20 08:01:33;;;;;;;;;;;;;;;21.14;50.58;100997.22;5113816;27;19982;-44
2022/10/20 08:03:58;;;;;;;;;;;;;;;21.15;50.45;100989.72;5108762;27;19939;-42
2022/10/20 08:06:24;;;;;;;;;;;;;;;21.16;50.05;100988.63;5112010;27;19932;-41
2022/10/20 08:08:50;;;;;;;;;;;;;;;21.16;50.26;100991.41;5090751;27;20563;-39
2022/10/20 08:11:15;;;;;;;;;;;;;;;21.16;50.53;100997.75;5095167;28;19947;-41
2022/10/20 08:13:41;;;;;;;;;;;;;;;21.17;50.37;100995.81;5107816;27;19927;-40
2022/10/20 08:16:08;;;;;;;;;;;;;;;21.17;50.62;100987.50;5101218;27;19928;-40
2022/10/20 08:18:34;;;;;;;;;;;;;;;20.78;49.11;100983.72;5091510;27;19930;-39
2022/10/20 08:21:05;;;;;;;;;;;;;;;20.59;50.31;100977.22;5109818;27;19931;-39
2022/10/20 08:23:31;;;;;;;;;;;;;;;20.68;50.47;100988.50;5109725;27;19927;-39
2022/10/20 08:25:56;;;;;;;;;;;;;;;20.94;50.21;100992.72;5120252;27;19931;-40
2022/10/20 08:28:22;;;;;;;;;;;;;;;21.07;50.20;100996.75;5103537;27;19932;-40
2022/10/20 08:30:51;;;;;;;;;;;;;;;21.13;50.28;100994.75;5120942;27;20267;-41
2022/10/20 08:33:17;;;;;;;;;;;;;;;21.14;50.19;100990.84;5103535;27;20457;-41
2022/10/20 08:35:42;;;;;;;;;;;;;;;21.19;50.03;100996.31;5113944;27;20052;-39
2022/10/20 08:38:08;;;;;;;;;;;;;;;21.21;49.99;100985.81;5098106;27;19927;-41
2022/10/20 08:40:33;;;;;;;;;;;;;;;21.19;49.86;100976.94;5110007;27;19927;-40
2022/10/20 08:42:59;;;;;;;;;;;;;;;21.19;49.60;100985.25;5110405;27;20331;-42
2022/10/20 08:45:25;;;;;;;;;;;;;;;21.19;49.69;100971.41;5112594;27;19927;-40
2022/10/20 08:47:52;;;;;;;;;;;;;;;21.19;49.79;100975.00;5095477;27;20014;-40
2022/10/20 08:50:18;;;;;;;;;;;;;;;21.19;49.95;100979.72;5088188;27;20379;-41
2022/10/20 08:52:44;;;;;;;;;;;;;;;21.19;49.70;100972.22;5093122;27;20033;-40
2022/10/20 08:55:13;;;;;;;;;;;;;;;21.20;49.83;100968.34;5116144;27;19923;-40
2022/10/20 08:57:39;;;;;;;;;;;;;;;21.20;49.82;100962.81;5116405;27;19971;-43
2022/10/20 09:00:17;;;;;;;;;;;;;;;21.18;49.72;100965.03;5116371;27;20429;-40
2022/10/20 09:02:43;;;;;;;;;;;;;;;21.19;49.54;100985.25;5117294;27;19974;-40
2022/10/20 09:05:08;;;;;;;;;;;;;;;21.21;49.83;100992.16;5112418;27;19939;-44
2022/10/20 09:07:34;;;;;;;;;;;;;;;21.19;49.76;100969.44;5112020;27;20302;-40
2022/10/20 09:10:02;;;;;;;;;;;;;;;21.21;49.80;100964.47;5098418;27;19932;-42
2022/10/20 09:12:28;;;;;;;;;;;;;;;21.22;49.93;100955.03;5097763;27;19954;-40
2022/10/20 09:14:56;;;;;;;;;;;;;;;21.22;49.81;100960.56;5114829;27;20019;-41
2022/10/20 09:17:21;;;;;;;;;;;;;;;21.23;50.01;100955.84;5112876;27;20439;-42
2022/10/20 09:19:48;;;;;;;;;;;;;;;21.25;50.09;100957.22;5114936;27;19950;-40
2022/10/20 09:22:14;;;;;;;;;;;;;;;21.24;49.62;100968.56;5110227;27;20037;-41
2022/10/20 09:24:39;;;;;;;;;;;;;;;21.25;49.81;100964.72;5110516;27;20295;-40
2022/10/20 09:27:25;;;;;;;;;;;;;;;21.23;49.91;100959.44;5120011;27;19927;-42
2022/10/20 09:29:50;;;;;;;;;;;;;;;21.24;49.65;100938.09;5098038;27;21364;-41
2022/10/20 09:32:18;;;;;;;;;;;;;;;21.24;49.76;100941.72;5115219;27;19924;-41
2022/10/20 09:35:23;;;;;;;;;;;;;;;21.25;49.89;100939.78;5095025;27;19930;-40
2022/10/20 09:37:51;;;;;;;;;;;;;;;21.25;49.86;100937.81;5097225;27;21042;-42
2022/10/20 09:40:17;;;;;;;;;;;;;;;21.27;49.87;100940.28;5095317;27;20784;-42
2022/10/20 09:42:46;;;;;;;;;;;;;;;21.27;50.02;100941.13;5109579;27;20406;-41
2022/10/20 09:45:16;;;;;;;;;;;;;;;21.26;49.86;100931.16;5104215;27;20305;-40
2022/10/20 09:47:43;;;;;;;;;;;;;;;21.28;50.20;100928.91;5085960;27;19959;-41
2022/10/20 09:50:16;;;;;;;;;;;;;;;21.30;50.32;100935.00;5091630;27;19930;-40
2022/10/20 09:52:46;;;;;;;;;;;;;;;21.29;50.39;100925.03;5088015;27;20067;-41
2022/10/20 09:55:21;;;;;;;;;;;;;;;21.29;50.73;100932.53;5111197;27;20134;-40
2022/10/20 09:57:47;;;;;;;;;;;;;;;21.28;50.82;100948.28;5112773;27;20022;-43
2022/10/20 10:00:21;;;;;;;;;;;;;;;21.29;50.53;100968.53;5112527;27;19939;-40
2022/10/20 10:03:13;;;;;;;;;;;;;;;21.29;50.72;100979.63;5113677;27;19977;-40
2022/10/20 10:05:38;;;;;;;;;;;;;;;21.30;50.41;100978.50;5112097;27;20302;-40
2022/10/20 10:08:04;;;;;;;;;;;;;;;21.29;50.87;100969.38;5114765;27;19944;-40
2022/10/20 10:10:30;;;;;;;;;;;;;;;21.29;50.10;100971.31;5110045;27;20202;-43
2022/10/20 10:12:56;;;;;;;;;;;;;;;21.28;50.11;100962.16;5107013;27;19939;-41
2022/10/20 10:17:56;;;;;;;;;;;;;;;21.29;50.96;100961.06;5155719;27;19933;-41
2022/10/20 10:20:24;;;;;;;;;;;;;;;21.30;50.83;100982.09;5133087;27;19931;-40
2022/10/20 10:22:50;;;;;;;;;;;;;;;21.30;51.00;100978.50;5152574;27;20381;-41
2022/10/20 10:25:17;;;;;;;;;;;;;;;21.32;50.72;100983.75;5159383;27;20418;-41
2022/10/20 10:27:55;;;;;;;;;;;;;;;21.33;50.91;100982.63;5155375;27;20030;-40
2022/10/20 10:32:59;;;;;;;;;;;;;;;21.32;50.88;100965.19;5155013;27;19926;-40
2022/10/20 10:35:26;;;;;;;;;;;;;;;21.33;50.82;100969.63;5129362;27;20327;-40
2022/10/20 10:37:52;;;;;;;;;;;;;;;21.33;50.95;100972.41;5145819;27;20954;-40
2022/10/20 10:40:18;;;;;;;;;;;;;;;21.33;50.08;100968.78;5149850;27;19931;-40
2022/10/20 10:42:50;;;;;;;;;;;;;;;21.33;50.11;100950.25;5142305;27;19950;-42
2022/10/20 10:45:25;;;;;;;;;;;;;;;21.33;50.15;100966.88;5145537;27;20459;-44
2022/10/20 10:47:56;;;;;;;;;;;;;;;21.33;50.68;100939.16;5144411;27;20010;-43
2022/10/20 10:50:42;;;;;;;;;;;;;;;21.34;50.25;100953.84;5147026;27;20003;-41
2022/10/20 10:53:18;;;;;;;;;;;;;;;21.34;50.57;100965.75;5136313;27;20413;-39
2022/10/20 10:55:46;;;;;;;;;;;;;;;21.34;49.99;100939.97;5149815;27;20040;-40
2022/10/20 10:58:22;;;;;;;;;;;;;;;21.33;49.61;100930.00;5126785;27;20480;-43
2022/10/20 11:00:54;;;;;;;;;;;;;;;21.33;49.64;100922.53;5143496;27;20626;-40
2022/10/20 11:03:24;;;;;;;;;;;;;;;21.33;49.66;100928.09;5146639;27;19930;-40
2022/10/20 11:05:52;;;;;;;;;;;;;;;21.35;49.96;100919.47;5150788;27;20026;-42
2022/10/20 11:11:02;;;;;;;;;;;;;;;21.35;49.96;100927.78;5152830;27;19933;-41
2022/10/20 11:13:38;;;;;;;;;;;;;;;21.35;50.17;100925.81;5118447;27;19966;-40
2022/10/20 11:16:21;;;;;;;;;;;;;;;21.36;50.32;100935.78;5135035;27;20057;-40
2022/10/20 11:18:52;;;;;;;;;;;;;;;21.37;50.38;100934.66;5135428;27;20054;-43
2022/10/20 11:21:27;;;;;;;;;;;;;;;21.37;50.30;100940.19;5133476;27;19963;-44
2022/10/20 11:24:13;;;;;;;;;;;;;;;21.37;50.25;100944.91;5128839;27;20035;-41
2022/10/20 11:26:40;;;;;;;;;;;;;;;21.37;50.59;100951.28;5120476;27;19973;-41
2022/10/20 11:29:10;;;;;;;;;;;;;;;21.40;50.58;100947.09;5118720;27;20018;-40
2022/10/20 11:31:42;;;;;;;;;;;;;;;21.37;50.86;100961.53;5122571;27;20001;-40
2022/10/20 11:34:10;;;;;;;;;;;;;;;21.35;50.80;100942.44;5120450;27;19962;-40
2022/10/20 11:36:38;;;;;;;;;;;;;;;21.34;50.81;100951.88;5119695;27;20357;-41
2022/10/20 11:39:05;;;;;;;;;;;;;;;21.36;50.68;100948.81;5126950;27;20018;-44
2022/10/20 11:41:34;;;;;;;;;;;;;;;21.34;50.67;100940.81;5129453;27;20022;-42
2022/10/20 11:44:07;;;;;;;;;;;;;;;21.34;50.80;100954.66;5119906;27;20692;-40
2022/10/20 11:46:42;;;;;;;;;;;;;;;21.33;50.63;100955.78;5133251;27;20034;-39
2022/10/20 11:49:08;;;;;;;;;;;;;;;21.34;50.71;100957.44;5127849;27;20053;-40
2022/10/20 11:51:53;;;;;;;;;;;;;;;21.34;50.76;100962.97;5101681;27;20307;-40
2022/10/20 11:54:24;;;;;;;;;;;;;;;21.32;50.69;100964.38;5113509;27;20011;-41
2022/10/20 11:57:09;;;;;;;;;;;;;;;21.32;50.84;100962.41;5126268;27;20074;-40
2022/10/20 11:59:55;;;;;;;;;;;;;;;21.33;50.84;100960.47;5108583;27;20284;-40
2022/10/20 12:02:40;;;;;;;;;;;;;;;21.13;51.60;100953.19;5103263;27;20511;-43
2022/10/20 12:05:10;;;;;;;;;;;;;;;21.24;51.29;100950.03;5104701;27;20248;-40
2022/10/20 12:07:40;;;;;;;;;;;;;;;21.27;51.32;100941.13;5119224;27;20034;-40
2022/10/20 12:10:26;;;;;;;;;;;;;;;21.28;51.02;100926.13;5120946;27;20632;-41
2022/10/20 12:13:11;;;;;;;;;;;;;;;21.30;51.04;100923.91;5105156;27;20033;-39
2022/10/20 12:15:43;;;;;;;;;;;;;;;21.32;51.09;100911.75;5106534;27;20044;-41
2022/10/20 12:18:19;;;;;;;;;;;;;;;21.31;51.06;100908.13;5107931;27;19923;-40
2022/10/20 12:20:48;;;;;;;;;;;;;;;21.31;51.06;100872.09;5099688;27;20366;-41
2022/10/20 12:23:34;;;;;;;;;;;;;;;21.33;51.01;100869.91;5111204;27;20196;-40
2022/10/20 12:25:59;;;;;;;;;;;;;;;21.32;51.09;100890.41;5095568;28;20424;-43
2022/10/20 12:31:01;;;;;;;;;;;;;;;21.33;51.02;100872.69;5141754;27;19930;-41
2022/10/20 12:33:47;;;;;;;;;;;;;;;21.34;51.21;100860.47;5124056;27;20233;-41
2022/10/20 12:36:19;;;;;;;;;;;;;;;21.33;51.31;100853.28;5128456;27;20462;-39
2022/10/20 12:38:48;;;;;;;;;;;;;;;21.34;51.23;100867.97;5129274;27;19970;-40
2022/10/20 12:41:31;;;;;;;;;;;;;;;21.32;51.46;100854.38;5129837;27;19975;-41
2022/10/20 12:43:59;;;;;;;;;;;;;;;21.33;51.26;100874.59;5148055;27;20021;-42
2022/10/20 12:46:25;;;;;;;;;;;;;;;21.32;51.16;100873.78;5132628;27;19931;-40
2022/10/20 12:48:55;;;;;;;;;;;;;;;21.32;51.13;100868.25;5153522;27;19991;-40
2022/10/20 12:51:23;;;;;;;;;;;;;;;21.34;51.11;100874.31;5149675;27;20014;-40
2022/10/20 12:53:50;;;;;;;;;;;;;;;21.35;51.14;100864.88;5151458;27;19974;-40
2022/10/20 12:56:17;;;;;;;;;;;;;;;21.35;51.11;100861.28;5155124;27;20374;-40